New London, Wisconsin
Current Conditions -  °F | °C
As of 4:55 AM on Friday 28 Nov 2014 (Local Time) from KPCZ Reporting Station
Light Snow Light Snow  
Wind Chill:   Ceiling: 10000
Heat Index:   Visibility: 4mi
Dew Point:   Wind: 0mph
Humidity: 79%   Direction: NA
Pressure: 30.26"   Gusts: NA
Location:  44.39°N, 88.74°W
Report Text: KPCZ 281055Z AUTO 00000KT 4SM -SN SCT017 SCT022 OVC100 M13/M15 A3026 RMK AO2 T11261155
Loading
Personal Weather Stations






























Interactive Weather Map New forecast layout! Learn more

10-Day Weather Forecast

Advertisements
Track Severe Weather on mobile